sensor_id;sensor_type;location;lat;lon;timestamp;P1;durP1;ratioP1;P2;durP2;ratioP2
37203;SDS011;23098;48.054;10.636;2023-07-20T00:01:14;6.95;;;2.08;;
37203;SDS011;23098;48.054;10.636;2023-07-20T00:03:40;4.00;;;1.95;;
37203;SDS011;23098;48.054;10.636;2023-07-20T00:06:05;8.85;;;2.22;;
37203;SDS011;23098;48.054;10.636;2023-07-20T00:08:31;4.35;;;2.30;;
37203;SDS011;23098;48.054;10.636;2023-07-20T00:10:57;5.68;;;2.00;;
37203;SDS011;23098;48.054;10.636;2023-07-20T00:13:23;7.60;;;2.17;;
37203;SDS011;23098;48.054;10.636;2023-07-20T00:15:49;2.33;;;1.85;;
37203;SDS011;23098;48.054;10.636;2023-07-20T00:18:15;8.05;;;2.17;;
37203;SDS011;23098;48.054;10.636;2023-07-20T00:20:41;5.90;;;1.95;;
37203;SDS011;23098;48.054;10.636;2023-07-20T00:23:06;5.40;;;1.83;;
37203;SDS011;23098;48.054;10.636;2023-07-20T00:25:32;4.13;;;1.90;;
37203;SDS011;23098;48.054;10.636;2023-07-20T00:27:58;7.78;;;2.17;;
37203;SDS011;23098;48.054;10.636;2023-07-20T00:30:24;4.28;;;1.85;;
37203;SDS011;23098;48.054;10.636;2023-07-20T00:32:49;2.50;;;1.80;;
37203;SDS011;23098;48.054;10.636;2023-07-20T00:35:15;3.92;;;2.05;;
37203;SDS011;23098;48.054;10.636;2023-07-20T00:37:40;3.78;;;2.00;;
37203;SDS011;23098;48.054;10.636;2023-07-20T00:40:06;7.50;;;2.00;;
37203;SDS011;23098;48.054;10.636;2023-07-20T00:42:34;7.25;;;1.90;;
37203;SDS011;23098;48.054;10.636;2023-07-20T00:45:00;5.90;;;2.25;;
37203;SDS011;23098;48.054;10.636;2023-07-20T00:47:26;8.35;;;2.00;;
37203;SDS011;23098;48.054;10.636;2023-07-20T00:49:52;9.48;;;2.17;;
37203;SDS011;23098;48.054;10.636;2023-07-20T00:52:18;4.35;;;1.90;;
37203;SDS011;23098;48.054;10.636;2023-07-20T00:54:46;2.80;;;1.73;;
37203;SDS011;23098;48.054;10.636;2023-07-20T00:57:14;5.88;;;2.45;;
37203;SDS011;23098;48.054;10.636;2023-07-20T00:59:40;7.47;;;2.10;;
37203;SDS011;23098;48.054;10.636;2023-07-20T01:02:07;3.90;;;2.20;;
37203;SDS011;23098;48.054;10.636;2023-07-20T01:04:32;4.05;;;1.88;;
37203;SDS011;23098;48.054;10.636;2023-07-20T01:07:17;2.70;;;2.08;;
37203;SDS011;23098;48.054;10.636;2023-07-20T01:12:35;4.30;;;2.05;;
37203;SDS011;23098;48.054;10.636;2023-07-20T01:15:08;6.70;;;2.30;;
37203;SDS011;23098;48.054;10.636;2023-07-20T01:17:35;4.70;;;2.20;;
37203;SDS011;23098;48.054;10.636;2023-07-20T01:20:01;6.85;;;2.30;;
37203;SDS011;23098;48.054;10.636;2023-07-20T01:22:33;5.60;;;2.20;;
37203;SDS011;23098;48.054;10.636;2023-07-20T01:33:46;14.50;;;2.70;;
37203;SDS011;23098;48.054;10.636;2023-07-20T01:36:12;5.10;;;2.10;;
37203;SDS011;23098;48.054;10.636;2023-07-20T01:38:41;6.70;;;2.28;;
37203;SDS011;23098;48.054;10.636;2023-07-20T01:41:07;3.83;;;1.83;;
37203;SDS011;23098;48.054;10.636;2023-07-20T01:43:34;7.63;;;2.50;;
37203;SDS011;23098;48.054;10.636;2023-07-20T01:45:59;3.50;;;2.00;;
37203;SDS011;23098;48.054;10.636;2023-07-20T01:48:25;2.90;;;1.90;;
37203;SDS011;23098;48.054;10.636;2023-07-20T01:50:50;6.47;;;2.30;;
37203;SDS011;23098;48.054;10.636;2023-07-20T01:53:16;3.17;;;2.00;;
37203;SDS011;23098;48.054;10.636;2023-07-20T01:55:41;4.85;;;2.28;;
37203;SDS011;23098;48.054;10.636;2023-07-20T01:58:07;6.85;;;2.40;;
37203;SDS011;23098;48.054;10.636;2023-07-20T02:00:32;5.15;;;2.13;;
37203;SDS011;23098;48.054;10.636;2023-07-20T02:02:58;6.25;;;2.28;;
37203;SDS011;23098;48.054;10.636;2023-07-20T02:05:23;3.53;;;1.90;;
37203;SDS011;23098;48.054;10.636;2023-07-20T02:07:49;6.53;;;1.98;;
37203;SDS011;23098;48.054;10.636;2023-07-20T02:10:15;2.58;;;1.92;;
37203;SDS011;23098;48.054;10.636;2023-07-20T02:12:41;4.03;;;2.13;;
37203;SDS011;23098;48.054;10.636;2023-07-20T02:15:07;10.02;;;1.90;;
37203;SDS011;23098;48.054;10.636;2023-07-20T02:17:33;3.50;;;1.80;;
37203;SDS011;23098;48.054;10.636;2023-07-20T02:19:58;6.93;;;1.98;;
37203;SDS011;23098;48.054;10.636;2023-07-20T02:22:24;6.00;;;1.50;;
37203;SDS011;23098;48.054;10.636;2023-07-20T02:24:50;4.90;;;1.77;;
37203;SDS011;23098;48.054;10.636;2023-07-20T02:27:16;4.05;;;1.75;;
37203;SDS011;23098;48.054;10.636;2023-07-20T02:29:41;3.85;;;1.83;;
37203;SDS011;23098;48.054;10.636;2023-07-20T02:32:08;4.25;;;1.80;;
37203;SDS011;23098;48.054;10.636;2023-07-20T02:34:34;8.25;;;2.10;;
37203;SDS011;23098;48.054;10.636;2023-07-20T02:37:00;4.97;;;2.10;;
37203;SDS011;23098;48.054;10.636;2023-07-20T02:39:29;4.45;;;1.95;;
37203;SDS011;23098;48.054;10.636;2023-07-20T02:41:55;4.13;;;2.00;;
37203;SDS011;23098;48.054;10.636;2023-07-20T02:44:20;11.23;;;2.50;;
37203;SDS011;23098;48.054;10.636;2023-07-20T02:46:46;5.85;;;2.20;;
37203;SDS011;23098;48.054;10.636;2023-07-20T02:49:12;5.38;;;2.05;;
37203;SDS011;23098;48.054;10.636;2023-07-20T02:51:37;3.53;;;1.95;;
37203;SDS011;23098;48.054;10.636;2023-07-20T02:54:03;3.65;;;2.20;;
37203;SDS011;23098;48.054;10.636;2023-07-20T02:56:29;3.05;;;2.05;;
37203;SDS011;23098;48.054;10.636;2023-07-20T02:58:54;5.88;;;2.10;;
37203;SDS011;23098;48.054;10.636;2023-07-20T03:01:20;3.45;;;1.85;;
37203;SDS011;23098;48.054;10.636;2023-07-20T03:03:46;4.93;;;1.90;;
37203;SDS011;23098;48.054;10.636;2023-07-20T03:06:14;10.02;;;2.53;;
37203;SDS011;23098;48.054;10.636;2023-07-20T03:08:41;5.22;;;2.15;;
37203;SDS011;23098;48.054;10.636;2023-07-20T03:11:12;2.90;;;2.00;;
37203;SDS011;23098;48.054;10.636;2023-07-20T03:13:39;7.70;;;2.28;;
37203;SDS011;23098;48.054;10.636;2023-07-20T03:16:04;7.63;;;2.20;;
37203;SDS011;23098;48.054;10.636;2023-07-20T03:18:30;3.33;;;2.33;;
37203;SDS011;23098;48.054;10.636;2023-07-20T03:20:55;5.40;;;2.40;;
37203;SDS011;23098;48.054;10.636;2023-07-20T03:23:21;3.42;;;2.17;;
37203;SDS011;23098;48.054;10.636;2023-07-20T03:25:47;5.50;;;2.17;;
37203;SDS011;23098;48.054;10.636;2023-07-20T03:28:12;4.28;;;2.30;;
37203;SDS011;23098;48.054;10.636;2023-07-20T03:30:38;7.07;;;2.60;;
37203;SDS011;23098;48.054;10.636;2023-07-20T03:33:03;8.00;;;2.92;;
37203;SDS011;23098;48.054;10.636;2023-07-20T03:35:29;6.90;;;2.25;;
37203;SDS011;23098;48.054;10.636;2023-07-20T03:37:56;4.47;;;1.98;;
37203;SDS011;23098;48.054;10.636;2023-07-20T03:40:22;4.57;;;2.10;;
37203;SDS011;23098;48.054;10.636;2023-07-20T03:42:47;3.63;;;2.40;;
37203;SDS011;23098;48.054;10.636;2023-07-20T03:45:13;5.05;;;2.30;;
37203;SDS011;23098;48.054;10.636;2023-07-20T03:47:38;6.05;;;2.58;;
37203;SDS011;23098;48.054;10.636;2023-07-20T03:50:04;4.63;;;2.20;;
37203;SDS011;23098;48.054;10.636;2023-07-20T03:52:30;4.90;;;2.53;;
37203;SDS011;23098;48.054;10.636;2023-07-20T03:54:56;8.27;;;2.30;;
37203;SDS011;23098;48.054;10.636;2023-07-20T03:57:21;11.77;;;2.50;;
37203;SDS011;23098;48.054;10.636;2023-07-20T03:59:47;7.05;;;2.50;;
37203;SDS011;23098;48.054;10.636;2023-07-20T04:02:13;3.95;;;2.20;;
37203;SDS011;23098;48.054;10.636;2023-07-20T04:04:39;6.05;;;2.50;;
37203;SDS011;23098;48.054;10.636;2023-07-20T04:07:04;3.45;;;2.03;;
37203;SDS011;23098;48.054;10.636;2023-07-20T04:09:31;4.80;;;2.10;;
37203;SDS011;23098;48.054;10.636;2023-07-20T04:11:57;4.93;;;2.50;;
37203;SDS011;23098;48.054;10.636;2023-07-20T04:14:22;9.45;;;2.58;;
37203;SDS011;23098;48.054;10.636;2023-07-20T04:16:48;4.55;;;2.05;;
37203;SDS011;23098;48.054;10.636;2023-07-20T04:19:13;3.80;;;1.95;;
37203;SDS011;23098;48.054;10.636;2023-07-20T04:21:40;5.20;;;2.47;;
37203;SDS011;23098;48.054;10.636;2023-07-20T04:24:06;3.53;;;2.22;;
37203;SDS011;23098;48.054;10.636;2023-07-20T04:26:31;2.92;;;2.20;;
37203;SDS011;23098;48.054;10.636;2023-07-20T04:28:57;7.30;;;2.17;;
37203;SDS011;23098;48.054;10.636;2023-07-20T04:31:24;5.07;;;2.17;;
37203;SDS011;23098;48.054;10.636;2023-07-20T04:33:49;4.70;;;2.60;;
37203;SDS011;23098;48.054;10.636;2023-07-20T04:36:15;2.75;;;2.08;;
37203;SDS011;23098;48.054;10.636;2023-07-20T04:38:44;2.25;;;1.70;;
37203;SDS011;23098;48.054;10.636;2023-07-20T04:41:12;3.58;;;2.08;;
37203;SDS011;23098;48.054;10.636;2023-07-20T04:43:41;3.55;;;2.05;;
37203;SDS011;23098;48.054;10.636;2023-07-20T04:46:08;4.30;;;2.10;;
37203;SDS011;23098;48.054;10.636;2023-07-20T04:48:34;4.32;;;2.10;;
37203;SDS011;23098;48.054;10.636;2023-07-20T04:50:59;5.47;;;2.00;;
37203;SDS011;23098;48.054;10.636;2023-07-20T04:53:25;3.42;;;1.85;;
37203;SDS011;23098;48.054;10.636;2023-07-20T04:55:50;4.00;;;2.10;;
37203;SDS011;23098;48.054;10.636;2023-07-20T04:58:18;4.18;;;2.17;;
37203;SDS011;23098;48.054;10.636;2023-07-20T05:00:47;2.95;;;2.00;;
37203;SDS011;23098;48.054;10.636;2023-07-20T05:03:13;3.53;;;1.98;;
37203;SDS011;23098;48.054;10.636;2023-07-20T05:05:39;2.63;;;1.88;;
37203;SDS011;23098;48.054;10.636;2023-07-20T05:08:04;5.85;;;2.20;;
37203;SDS011;23098;48.054;10.636;2023-07-20T05:10:30;3.03;;;1.85;;
37203;SDS011;23098;48.054;10.636;2023-07-20T05:12:55;3.65;;;1.90;;
37203;SDS011;23098;48.054;10.636;2023-07-20T05:15:21;2.10;;;1.80;;
37203;SDS011;23098;48.054;10.636;2023-07-20T05:17:46;4.43;;;1.90;;
37203;SDS011;23098;48.054;10.636;2023-07-20T05:20:13;2.25;;;1.65;;
37203;SDS011;23098;48.054;10.636;2023-07-20T05:22:39;8.98;;;1.70;;
37203;SDS011;23098;48.054;10.636;2023-07-20T05:25:06;6.07;;;1.80;;
37203;SDS011;23098;48.054;10.636;2023-07-20T05:27:33;7.60;;;1.70;;
37203;SDS011;23098;48.054;10.636;2023-07-20T05:29:59;4.28;;;1.83;;
37203;SDS011;23098;48.054;10.636;2023-07-20T05:32:24;10.85;;;2.15;;
37203;SDS011;23098;48.054;10.636;2023-07-20T05:34:53;6.85;;;2.13;;
37203;SDS011;23098;48.054;10.636;2023-07-20T05:37:19;4.90;;;1.98;;
37203;SDS011;23098;48.054;10.636;2023-07-20T05:39:45;4.03;;;1.83;;
37203;SDS011;23098;48.054;10.636;2023-07-20T05:42:10;5.22;;;1.60;;
37203;SDS011;23098;48.054;10.636;2023-07-20T05:44:37;7.40;;;1.80;;
37203;SDS011;23098;48.054;10.636;2023-07-20T05:47:03;3.67;;;1.70;;
37203;SDS011;23098;48.054;10.636;2023-07-20T05:49:29;4.15;;;1.92;;
37203;SDS011;23098;48.054;10.636;2023-07-20T05:51:56;5.43;;;1.90;;
37203;SDS011;23098;48.054;10.636;2023-07-20T05:54:21;4.43;;;1.77;;
37203;SDS011;23098;48.054;10.636;2023-07-20T05:56:48;6.03;;;1.92;;
37203;SDS011;23098;48.054;10.636;2023-07-20T05:59:14;9.75;;;2.10;;
37203;SDS011;23098;48.054;10.636;2023-07-20T06:01:40;3.72;;;2.00;;
37203;SDS011;23098;48.054;10.636;2023-07-20T06:04:06;11.32;;;2.38;;
37203;SDS011;23098;48.054;10.636;2023-07-20T06:06:32;15.57;;;2.22;;
37203;SDS011;23098;48.054;10.636;2023-07-20T06:08:57;8.73;;;2.10;;
37203;SDS011;23098;48.054;10.636;2023-07-20T06:11:23;7.45;;;2.40;;
37203;SDS011;23098;48.054;10.636;2023-07-20T06:13:48;8.80;;;2.00;;
37203;SDS011;23098;48.054;10.636;2023-07-20T06:16:14;4.90;;;2.25;;
37203;SDS011;23098;48.054;10.636;2023-07-20T06:18:40;7.85;;;2.20;;
37203;SDS011;23098;48.054;10.636;2023-07-20T06:21:05;6.97;;;2.28;;
37203;SDS011;23098;48.054;10.636;2023-07-20T06:23:31;4.78;;;2.25;;
37203;SDS011;23098;48.054;10.636;2023-07-20T06:25:56;8.13;;;2.03;;
37203;SDS011;23098;48.054;10.636;2023-07-20T06:28:22;6.00;;;1.92;;
37203;SDS011;23098;48.054;10.636;2023-07-20T06:30:48;3.03;;;1.63;;
37203;SDS011;23098;48.054;10.636;2023-07-20T06:33:13;6.88;;;2.05;;
37203;SDS011;23098;48.054;10.636;2023-07-20T06:35:41;6.50;;;1.70;;
37203;SDS011;23098;48.054;10.636;2023-07-20T06:38:08;5.47;;;2.00;;
37203;SDS011;23098;48.054;10.636;2023-07-20T06:40:33;8.68;;;2.00;;
37203;SDS011;23098;48.054;10.636;2023-07-20T06:42:59;6.40;;;2.08;;
37203;SDS011;23098;48.054;10.636;2023-07-20T06:45:24;7.97;;;1.90;;
37203;SDS011;23098;48.054;10.636;2023-07-20T06:47:50;5.68;;;1.80;;
37203;SDS011;23098;48.054;10.636;2023-07-20T06:50:15;3.22;;;1.65;;
37203;SDS011;23098;48.054;10.636;2023-07-20T06:52:41;7.68;;;1.70;;
37203;SDS011;23098;48.054;10.636;2023-07-20T06:55:07;4.97;;;1.67;;
37203;SDS011;23098;48.054;10.636;2023-07-20T06:57:33;5.53;;;1.60;;
37203;SDS011;23098;48.054;10.636;2023-07-20T06:59:58;2.45;;;1.55;;
37203;SDS011;23098;48.054;10.636;2023-07-20T07:02:24;3.95;;;1.63;;
37203;SDS011;23098;48.054;10.636;2023-07-20T07:04:49;4.18;;;1.55;;
37203;SDS011;23098;48.054;10.636;2023-07-20T07:07:15;3.72;;;1.48;;
37203;SDS011;23098;48.054;10.636;2023-07-20T07:09:41;3.97;;;1.80;;
37203;SDS011;23098;48.054;10.636;2023-07-20T07:12:06;3.55;;;1.50;;
37203;SDS011;23098;48.054;10.636;2023-07-20T07:14:33;3.72;;;1.60;;
37203;SDS011;23098;48.054;10.636;2023-07-20T07:16:58;3.92;;;1.95;;
37203;SDS011;23098;48.054;10.636;2023-07-20T07:19:24;3.50;;;1.63;;
37203;SDS011;23098;48.054;10.636;2023-07-20T07:21:50;2.78;;;1.70;;
37203;SDS011;23098;48.054;10.636;2023-07-20T07:24:15;2.25;;;1.70;;
37203;SDS011;23098;48.054;10.636;2023-07-20T07:26:41;2.95;;;1.55;;
37203;SDS011;23098;48.054;10.636;2023-07-20T07:29:07;3.53;;;1.63;;
37203;SDS011;23098;48.054;10.636;2023-07-20T07:31:33;3.63;;;1.77;;
37203;SDS011;23098;48.054;10.636;2023-07-20T07:34:00;3.33;;;1.92;;
37203;SDS011;23098;48.054;10.636;2023-07-20T07:36:26;3.38;;;1.90;;
37203;SDS011;23098;48.054;10.636;2023-07-20T07:38:52;5.80;;;1.80;;
37203;SDS011;23098;48.054;10.636;2023-07-20T07:41:17;2.92;;;2.00;;
37203;SDS011;23098;48.054;10.636;2023-07-20T07:43:43;2.90;;;1.92;;
37203;SDS011;23098;48.054;10.636;2023-07-20T07:46:08;4.93;;;2.00;;
37203;SDS011;23098;48.054;10.636;2023-07-20T07:48:34;4.53;;;1.80;;
37203;SDS011;23098;48.054;10.636;2023-07-20T07:50:59;3.67;;;1.80;;
37203;SDS011;23098;48.054;10.636;2023-07-20T07:53:25;5.32;;;1.88;;
37203;SDS011;23098;48.054;10.636;2023-07-20T07:55:51;5.28;;;1.95;;
37203;SDS011;23098;48.054;10.636;2023-07-20T07:58:17;2.85;;;1.83;;
37203;SDS011;23098;48.054;10.636;2023-07-20T08:00:42;3.35;;;1.80;;
37203;SDS011;23098;48.054;10.636;2023-07-20T08:03:09;10.55;;;2.08;;
37203;SDS011;23098;48.054;10.636;2023-07-20T08:05:34;8.82;;;1.98;;
37203;SDS011;23098;48.054;10.636;2023-07-20T08:08:01;11.82;;;2.47;;
37203;SDS011;23098;48.054;10.636;2023-07-20T08:10:30;7.22;;;2.25;;
37203;SDS011;23098;48.054;10.636;2023-07-20T08:12:55;5.93;;;2.70;;
37203;SDS011;23098;48.054;10.636;2023-07-20T08:15:21;3.05;;;2.05;;
37203;SDS011;23098;48.054;10.636;2023-07-20T08:17:47;3.05;;;2.25;;
37203;SDS011;23098;48.054;10.636;2023-07-20T08:20:13;3.38;;;1.70;;
37203;SDS011;23098;48.054;10.636;2023-07-20T08:22:41;3.00;;;1.50;;
37203;SDS011;23098;48.054;10.636;2023-07-20T08:25:07;4.70;;;1.85;;
37203;SDS011;23098;48.054;10.636;2023-07-20T08:27:33;1.88;;;1.38;;
37203;SDS011;23098;48.054;10.636;2023-07-20T08:29:58;3.55;;;1.48;;
37203;SDS011;23098;48.054;10.636;2023-07-20T08:32:25;2.30;;;1.70;;
37203;SDS011;23098;48.054;10.636;2023-07-20T08:34:51;2.35;;;1.48;;
37203;SDS011;23098;48.054;10.636;2023-07-20T08:37:16;2.25;;;1.40;;
37203;SDS011;23098;48.054;10.636;2023-07-20T08:39:42;2.83;;;1.63;;
37203;SDS011;23098;48.054;10.636;2023-07-20T08:42:07;2.35;;;1.50;;
37203;SDS011;23098;48.054;10.636;2023-07-20T08:44:34;3.58;;;1.55;;
37203;SDS011;23098;48.054;10.636;2023-07-20T08:47:01;3.25;;;1.70;;
37203;SDS011;23098;48.054;10.636;2023-07-20T08:49:29;1.73;;;1.50;;
37203;SDS011;23098;48.054;10.636;2023-07-20T08:51:57;6.15;;;1.75;;
37203;SDS011;23098;48.054;10.636;2023-07-20T08:54:23;3.38;;;1.63;;
37203;SDS011;23098;48.054;10.636;2023-07-20T08:56:52;3.15;;;1.60;;
37203;SDS011;23098;48.054;10.636;2023-07-20T08:59:20;4.60;;;2.10;;
37203;SDS011;23098;48.054;10.636;2023-07-20T09:01:48;5.40;;;1.70;;
37203;SDS011;23098;48.054;10.636;2023-07-20T09:04:14;3.10;;;1.52;;
37203;SDS011;23098;48.054;10.636;2023-07-20T09:06:41;2.80;;;1.70;;
37203;SDS011;23098;48.054;10.636;2023-07-20T09:09:06;3.53;;;1.75;;
37203;SDS011;23098;48.054;10.636;2023-07-20T09:11:32;4.45;;;2.08;;
37203;SDS011;23098;48.054;10.636;2023-07-20T09:14:03;2.92;;;1.65;;
37203;SDS011;23098;48.054;10.636;2023-07-20T09:16:32;4.72;;;1.77;;
37203;SDS011;23098;48.054;10.636;2023-07-20T09:19:02;3.58;;;1.70;;
37203;SDS011;23098;48.054;10.636;2023-07-20T09:21:29;3.72;;;2.05;;
37203;SDS011;23098;48.054;10.636;2023-07-20T09:23:58;4.70;;;1.77;;
37203;SDS011;23098;48.054;10.636;2023-07-20T09:26:24;2.60;;;1.75;;
37203;SDS011;23098;48.054;10.636;2023-07-20T09:28:51;3.53;;;1.70;;
37203;SDS011;23098;48.054;10.636;2023-07-20T09:31:18;4.63;;;1.92;;
37203;SDS011;23098;48.054;10.636;2023-07-20T09:33:45;3.63;;;1.58;;
37203;SDS011;23098;48.054;10.636;2023-07-20T09:36:11;5.30;;;1.80;;
37203;SDS011;23098;48.054;10.636;2023-07-20T09:38:37;3.40;;;1.65;;
37203;SDS011;23098;48.054;10.636;2023-07-20T09:41:06;5.18;;;1.45;;
37203;SDS011;23098;48.054;10.636;2023-07-20T09:43:33;2.38;;;1.33;;
37203;SDS011;23098;48.054;10.636;2023-07-20T09:45:59;5.97;;;1.50;;
37203;SDS011;23098;48.054;10.636;2023-07-20T09:48:25;3.55;;;1.65;;
37203;SDS011;23098;48.054;10.636;2023-07-20T09:50:51;3.97;;;1.63;;
37203;SDS011;23098;48.054;10.636;2023-07-20T09:53:18;3.88;;;1.80;;
37203;SDS011;23098;48.054;10.636;2023-07-20T09:55:45;5.32;;;1.60;;
37203;SDS011;23098;48.054;10.636;2023-07-20T09:58:12;5.05;;;1.65;;
37203;SDS011;23098;48.054;10.636;2023-07-20T10:00:38;4.45;;;1.80;;
37203;SDS011;23098;48.054;10.636;2023-07-20T10:03:05;4.57;;;1.90;;
37203;SDS011;23098;48.054;10.636;2023-07-20T10:05:35;3.38;;;1.65;;
37203;SDS011;23098;48.054;10.636;2023-07-20T10:08:04;3.00;;;1.60;;
37203;SDS011;23098;48.054;10.636;2023-07-20T10:10:30;2.75;;;1.40;;
37203;SDS011;23098;48.054;10.636;2023-07-20T10:12:57;3.47;;;1.65;;
37203;SDS011;23098;48.054;10.636;2023-07-20T10:15:59;8.98;;;1.80;;
37203;SDS011;23098;48.054;10.636;2023-07-20T10:18:28;5.07;;;1.70;;
37203;SDS011;23098;48.054;10.636;2023-07-20T10:20:55;4.70;;;1.77;;
37203;SDS011;23098;48.054;10.636;2023-07-20T10:23:21;5.32;;;1.77;;
37203;SDS011;23098;48.054;10.636;2023-07-20T10:25:48;2.78;;;1.65;;
37203;SDS011;23098;48.054;10.636;2023-07-20T10:28:15;3.10;;;1.90;;
37203;SDS011;23098;48.054;10.636;2023-07-20T10:30:41;3.13;;;1.50;;
37203;SDS011;23098;48.054;10.636;2023-07-20T10:33:08;2.47;;;1.70;;
37203;SDS011;23098;48.054;10.636;2023-07-20T10:35:53;2.00;;;1.60;;
37203;SDS011;23098;48.054;10.636;2023-07-20T10:38:37;3.13;;;1.40;;
37203;SDS011;23098;48.054;10.636;2023-07-20T10:41:04;5.22;;;1.60;;
37203;SDS011;23098;48.054;10.636;2023-07-20T10:43:42;3.97;;;1.83;;
37203;SDS011;23098;48.054;10.636;2023-07-20T10:46:08;4.00;;;1.75;;
37203;SDS011;23098;48.054;10.636;2023-07-20T10:48:36;3.17;;;1.70;;
37203;SDS011;23098;48.054;10.636;2023-07-20T10:51:29;3.75;;;1.60;;
37203;SDS011;23098;48.054;10.636;2023-07-20T10:53:58;3.20;;;1.60;;
37203;SDS011;23098;48.054;10.636;2023-07-20T10:56:27;2.67;;;1.50;;
37203;SDS011;23098;48.054;10.636;2023-07-20T10:58:58;3.35;;;1.55;;
37203;SDS011;23098;48.054;10.636;2023-07-20T11:01:31;2.42;;;1.60;;
37203;SDS011;23098;48.054;10.636;2023-07-20T11:04:01;2.72;;;1.60;;
37203;SDS011;23098;48.054;10.636;2023-07-20T11:06:33;3.33;;;1.60;;
37203;SDS011;23098;48.054;10.636;2023-07-20T11:11:35;2.67;;;1.40;;
37203;SDS011;23098;48.054;10.636;2023-07-20T11:14:05;3.90;;;1.60;;
37203;SDS011;23098;48.054;10.636;2023-07-20T11:16:33;3.97;;;1.70;;
37203;SDS011;23098;48.054;10.636;2023-07-20T11:19:13;2.67;;;1.75;;
37203;SDS011;23098;48.054;10.636;2023-07-20T11:21:43;2.10;;;1.50;;
37203;SDS011;23098;48.054;10.636;2023-07-20T11:24:10;2.58;;;1.60;;
37203;SDS011;23098;48.054;10.636;2023-07-20T11:26:48;5.35;;;1.70;;
37203;SDS011;23098;48.054;10.636;2023-07-20T11:29:19;2.80;;;1.80;;
37203;SDS011;23098;48.054;10.636;2023-07-20T11:31:46;3.80;;;1.63;;
37203;SDS011;23098;48.054;10.636;2023-07-20T11:34:13;2.75;;;1.60;;
37203;SDS011;23098;48.054;10.636;2023-07-20T11:36:43;8.00;;;1.70;;
37203;SDS011;23098;48.054;10.636;2023-07-20T11:39:11;3.40;;;1.50;;
37203;SDS011;23098;48.054;10.636;2023-07-20T11:41:47;5.13;;;1.60;;
37203;SDS011;23098;48.054;10.636;2023-07-20T11:44:18;4.40;;;1.70;;
37203;SDS011;23098;48.054;10.636;2023-07-20T11:47:13;3.45;;;1.50;;
37203;SDS011;23098;48.054;10.636;2023-07-20T11:49:38;3.70;;;1.52;;
37203;SDS011;23098;48.054;10.636;2023-07-20T11:52:13;2.25;;;1.40;;
37203;SDS011;23098;48.054;10.636;2023-07-20T11:54:41;3.15;;;1.33;;
37203;SDS011;23098;48.054;10.636;2023-07-20T11:57:15;2.95;;;1.58;;
37203;SDS011;23098;48.054;10.636;2023-07-20T11:59:53;2.58;;;1.48;;
37203;SDS011;23098;48.054;10.636;2023-07-20T12:02:23;3.25;;;1.88;;
37203;SDS011;23098;48.054;10.636;2023-07-20T12:04:51;4.03;;;1.88;;
37203;SDS011;23098;48.054;10.636;2023-07-20T12:07:18;3.13;;;1.58;;
37203;SDS011;23098;48.054;10.636;2023-07-20T12:09:44;3.65;;;1.85;;
37203;SDS011;23098;48.054;10.636;2023-07-20T12:12:10;1.65;;;1.40;;
37203;SDS011;23098;48.054;10.636;2023-07-20T12:14:39;3.38;;;1.70;;
37203;SDS011;23098;48.054;10.636;2023-07-20T12:17:04;4.22;;;1.80;;
37203;SDS011;23098;48.054;10.636;2023-07-20T12:19:37;2.08;;;1.73;;
37203;SDS011;23098;48.054;10.636;2023-07-20T12:22:04;3.72;;;1.67;;
37203;SDS011;23098;48.054;10.636;2023-07-20T12:24:31;3.25;;;1.60;;
37203;SDS011;23098;48.054;10.636;2023-07-20T12:26:57;4.07;;;1.70;;
37203;SDS011;23098;48.054;10.636;2023-07-20T12:29:24;5.40;;;1.60;;
37203;SDS011;23098;48.054;10.636;2023-07-20T12:31:51;3.47;;;1.77;;
37203;SDS011;23098;48.054;10.636;2023-07-20T12:34:17;2.15;;;1.40;;
37203;SDS011;23098;48.054;10.636;2023-07-20T12:36:42;8.80;;;1.60;;
37203;SDS011;23098;48.054;10.636;2023-07-20T12:39:08;3.78;;;2.00;;
37203;SDS011;23098;48.054;10.636;2023-07-20T12:41:33;2.63;;;1.60;;
37203;SDS011;23098;48.054;10.636;2023-07-20T12:43:59;3.83;;;1.63;;
37203;SDS011;23098;48.054;10.636;2023-07-20T12:46:25;4.63;;;1.75;;
37203;SDS011;23098;48.054;10.636;2023-07-20T12:48:50;3.85;;;1.60;;
37203;SDS011;23098;48.054;10.636;2023-07-20T12:51:16;4.32;;;1.88;;
37203;SDS011;23098;48.054;10.636;2023-07-20T12:53:41;2.00;;;1.50;;
37203;SDS011;23098;48.054;10.636;2023-07-20T12:56:07;4.20;;;1.48;;
37203;SDS011;23098;48.054;10.636;2023-07-20T12:58:32;6.85;;;2.05;;
37203;SDS011;23098;48.054;10.636;2023-07-20T13:00:58;3.08;;;1.70;;
37203;SDS011;23098;48.054;10.636;2023-07-20T13:03:24;3.92;;;1.73;;
37203;SDS011;23098;48.054;10.636;2023-07-20T13:05:49;2.65;;;1.52;;
37203;SDS011;23098;48.054;10.636;2023-07-20T13:08:15;3.33;;;1.52;;
37203;SDS011;23098;48.054;10.636;2023-07-20T13:10:41;2.22;;;1.50;;
37203;SDS011;23098;48.054;10.636;2023-07-20T13:13:07;4.18;;;1.70;;
37203;SDS011;23098;48.054;10.636;2023-07-20T13:15:40;9.27;;;1.80;;
37203;SDS011;23098;48.054;10.636;2023-07-20T13:18:06;4.13;;;1.70;;
37203;SDS011;23098;48.054;10.636;2023-07-20T13:20:32;3.97;;;1.55;;
37203;SDS011;23098;48.054;10.636;2023-07-20T13:22:57;3.22;;;1.75;;
37203;SDS011;23098;48.054;10.636;2023-07-20T13:25:23;1.98;;;1.52;;
37203;SDS011;23098;48.054;10.636;2023-07-20T13:27:49;3.05;;;1.70;;
37203;SDS011;23098;48.054;10.636;2023-07-20T13:30:14;7.38;;;1.90;;
37203;SDS011;23098;48.054;10.636;2023-07-20T13:32:42;2.72;;;1.67;;
37203;SDS011;23098;48.054;10.636;2023-07-20T13:35:08;3.50;;;1.77;;
37203;SDS011;23098;48.054;10.636;2023-07-20T13:37:34;2.40;;;1.50;;
37203;SDS011;23098;48.054;10.636;2023-07-20T13:40:00;3.85;;;1.70;;
37203;SDS011;23098;48.054;10.636;2023-07-20T13:42:25;3.15;;;1.63;;
37203;SDS011;23098;48.054;10.636;2023-07-20T13:44:51;4.13;;;1.70;;
37203;SDS011;23098;48.054;10.636;2023-07-20T13:47:17;5.47;;;1.50;;
37203;SDS011;23098;48.054;10.636;2023-07-20T13:49:43;3.63;;;1.70;;
37203;SDS011;23098;48.054;10.636;2023-07-20T13:52:08;3.38;;;1.60;;
37203;SDS011;23098;48.054;10.636;2023-07-20T13:54:34;3.42;;;1.70;;
37203;SDS011;23098;48.054;10.636;2023-07-20T13:57:00;3.30;;;1.85;;
37203;SDS011;23098;48.054;10.636;2023-07-20T13:59:25;5.10;;;1.85;;
37203;SDS011;23098;48.054;10.636;2023-07-20T14:01:51;2.83;;;1.67;;
37203;SDS011;23098;48.054;10.636;2023-07-20T14:04:16;12.60;;;2.35;;
37203;SDS011;23098;48.054;10.636;2023-07-20T14:06:42;3.35;;;1.70;;
37203;SDS011;23098;48.054;10.636;2023-07-20T14:09:07;3.33;;;1.55;;
37203;SDS011;23098;48.054;10.636;2023-07-20T14:11:33;5.13;;;1.70;;
37203;SDS011;23098;48.054;10.636;2023-07-20T14:13:58;4.93;;;1.90;;
37203;SDS011;23098;48.054;10.636;2023-07-20T14:16:24;4.28;;;1.50;;
37203;SDS011;23098;48.054;10.636;2023-07-20T14:18:50;3.63;;;1.70;;
37203;SDS011;23098;48.054;10.636;2023-07-20T14:21:16;3.08;;;1.70;;
37203;SDS011;23098;48.054;10.636;2023-07-20T14:23:44;8.20;;;1.67;;
37203;SDS011;23098;48.054;10.636;2023-07-20T14:26:11;5.10;;;1.80;;
37203;SDS011;23098;48.054;10.636;2023-07-20T14:28:36;4.20;;;1.60;;
37203;SDS011;23098;48.054;10.636;2023-07-20T14:31:02;7.28;;;1.67;;
37203;SDS011;23098;48.054;10.636;2023-07-20T14:33:28;3.92;;;1.67;;
37203;SDS011;23098;48.054;10.636;2023-07-20T14:35:53;2.38;;;1.70;;
37203;SDS011;23098;48.054;10.636;2023-07-20T14:38:19;2.25;;;1.48;;
37203;SDS011;23098;48.054;10.636;2023-07-20T14:40:45;2.60;;;1.75;;
37203;SDS011;23098;48.054;10.636;2023-07-20T14:43:10;5.53;;;1.73;;
37203;SDS011;23098;48.054;10.636;2023-07-20T14:45:36;2.00;;;1.55;;